sensor_id;sensor_type;location;lat;lon;timestamp;P1;durP1;ratioP1;P2;durP2;ratioP2
79478;SDS011;68943;49.472;17.970;2023-07-13T00:02:22;4.30;;;3.35;;
79478;SDS011;68943;49.472;17.970;2023-07-13T00:04:49;5.68;;;2.42;;
79478;SDS011;68943;49.472;17.970;2023-07-13T00:07:15;4.22;;;2.67;;
79478;SDS011;68943;49.472;17.970;2023-07-13T00:09:45;6.07;;;3.13;;
79478;SDS011;68943;49.472;17.970;2023-07-13T00:14:50;4.07;;;2.75;;
79478;SDS011;68943;49.472;17.970;2023-07-13T00:17:16;4.65;;;2.80;;
79478;SDS011;68943;49.472;17.970;2023-07-13T00:19:42;7.15;;;3.50;;
79478;SDS011;68943;49.472;17.970;2023-07-13T00:22:08;5.85;;;3.55;;
79478;SDS011;68943;49.472;17.970;2023-07-13T00:24:34;4.95;;;2.95;;
79478;SDS011;68943;49.472;17.970;2023-07-13T00:27:01;4.72;;;3.33;;
79478;SDS011;68943;49.472;17.970;2023-07-13T00:29:27;5.10;;;3.53;;
79478;SDS011;68943;49.472;17.970;2023-07-13T00:31:53;3.75;;;2.13;;
79478;SDS011;68943;49.472;17.970;2023-07-13T00:34:19;4.15;;;2.30;;
79478;SDS011;68943;49.472;17.970;2023-07-13T00:36:47;3.42;;;2.50;;
79478;SDS011;68943;49.472;17.970;2023-07-13T00:39:13;6.43;;;2.92;;
79478;SDS011;68943;49.472;17.970;2023-07-13T00:41:39;4.50;;;2.78;;
79478;SDS011;68943;49.472;17.970;2023-07-13T00:44:08;4.13;;;2.65;;
79478;SDS011;68943;49.472;17.970;2023-07-13T00:46:34;5.32;;;2.70;;
79478;SDS011;68943;49.472;17.970;2023-07-13T00:49:01;4.10;;;3.38;;
79478;SDS011;68943;49.472;17.970;2023-07-13T00:51:31;4.93;;;2.42;;
79478;SDS011;68943;49.472;17.970;2023-07-13T00:53:58;5.50;;;3.28;;
79478;SDS011;68943;49.472;17.970;2023-07-13T00:56:25;4.78;;;3.28;;
79478;SDS011;68943;49.472;17.970;2023-07-13T00:58:51;5.55;;;3.10;;
79478;SDS011;68943;49.472;17.970;2023-07-13T01:01:18;5.30;;;3.25;;
79478;SDS011;68943;49.472;17.970;2023-07-13T01:03:44;4.82;;;3.28;;
79478;SDS011;68943;49.472;17.970;2023-07-13T01:06:11;8.00;;;3.10;;
79478;SDS011;68943;49.472;17.970;2023-07-13T01:08:38;5.40;;;3.85;;
79478;SDS011;68943;49.472;17.970;2023-07-13T01:11:05;5.75;;;3.70;;
79478;SDS011;68943;49.472;17.970;2023-07-13T01:13:33;5.10;;;3.58;;
79478;SDS011;68943;49.472;17.970;2023-07-13T01:16:00;5.97;;;4.07;;
79478;SDS011;68943;49.472;17.970;2023-07-13T01:18:27;5.60;;;3.03;;
79478;SDS011;68943;49.472;17.970;2023-07-13T01:23:20;5.88;;;4.45;;
79478;SDS011;68943;49.472;17.970;2023-07-13T01:25:46;6.78;;;4.85;;
79478;SDS011;68943;49.472;17.970;2023-07-13T01:28:12;6.43;;;4.47;;
79478;SDS011;68943;49.472;17.970;2023-07-13T01:30:39;9.95;;;5.82;;
79478;SDS011;68943;49.472;17.970;2023-07-13T01:33:06;6.78;;;4.07;;
79478;SDS011;68943;49.472;17.970;2023-07-13T01:35:33;6.80;;;4.85;;
79478;SDS011;68943;49.472;17.970;2023-07-13T01:37:59;7.38;;;4.60;;
79478;SDS011;68943;49.472;17.970;2023-07-13T01:40:26;6.70;;;5.57;;
79478;SDS011;68943;49.472;17.970;2023-07-13T01:42:52;10.20;;;5.32;;
79478;SDS011;68943;49.472;17.970;2023-07-13T01:45:18;6.25;;;4.38;;
79478;SDS011;68943;49.472;17.970;2023-07-13T01:47:45;6.50;;;4.22;;
79478;SDS011;68943;49.472;17.970;2023-07-13T01:50:11;6.07;;;4.32;;
79478;SDS011;68943;49.472;17.970;2023-07-13T01:52:37;6.10;;;4.57;;
79478;SDS011;68943;49.472;17.970;2023-07-13T01:55:03;7.82;;;4.75;;
79478;SDS011;68943;49.472;17.970;2023-07-13T01:57:29;6.00;;;4.20;;
79478;SDS011;68943;49.472;17.970;2023-07-13T01:59:55;6.78;;;5.15;;
79478;SDS011;68943;49.472;17.970;2023-07-13T02:02:21;8.60;;;5.05;;
79478;SDS011;68943;49.472;17.970;2023-07-13T02:04:47;6.65;;;4.85;;
79478;SDS011;68943;49.472;17.970;2023-07-13T02:07:13;7.10;;;4.93;;
79478;SDS011;68943;49.472;17.970;2023-07-13T02:09:40;7.72;;;5.72;;
79478;SDS011;68943;49.472;17.970;2023-07-13T02:12:07;7.25;;;5.03;;
79478;SDS011;68943;49.472;17.970;2023-07-13T02:14:33;7.53;;;5.72;;
79478;SDS011;68943;49.472;17.970;2023-07-13T02:16:59;8.98;;;5.43;;
79478;SDS011;68943;49.472;17.970;2023-07-13T02:19:25;8.63;;;4.28;;
79478;SDS011;68943;49.472;17.970;2023-07-13T02:21:51;7.60;;;4.60;;
79478;SDS011;68943;49.472;17.970;2023-07-13T02:24:17;6.47;;;4.43;;
79478;SDS011;68943;49.472;17.970;2023-07-13T02:26:46;7.53;;;4.85;;
79478;SDS011;68943;49.472;17.970;2023-07-13T02:29:12;7.10;;;4.63;;
79478;SDS011;68943;49.472;17.970;2023-07-13T02:31:38;6.63;;;4.30;;
79478;SDS011;68943;49.472;17.970;2023-07-13T02:34:04;5.43;;;4.65;;
79478;SDS011;68943;49.472;17.970;2023-07-13T02:36:30;9.82;;;4.68;;
79478;SDS011;68943;49.472;17.970;2023-07-13T02:38:57;6.70;;;5.30;;
79478;SDS011;68943;49.472;17.970;2023-07-13T02:41:24;6.50;;;4.60;;
79478;SDS011;68943;49.472;17.970;2023-07-13T02:43:50;5.80;;;4.38;;
79478;SDS011;68943;49.472;17.970;2023-07-13T02:46:16;9.27;;;6.13;;
79478;SDS011;68943;49.472;17.970;2023-07-13T02:48:42;7.10;;;4.57;;
79478;SDS011;68943;49.472;17.970;2023-07-13T02:51:08;8.55;;;4.28;;
79478;SDS011;68943;49.472;17.970;2023-07-13T02:53:34;6.90;;;4.63;;
79478;SDS011;68943;49.472;17.970;2023-07-13T02:56:01;8.68;;;5.18;;
79478;SDS011;68943;49.472;17.970;2023-07-13T02:58:27;7.40;;;3.97;;
79478;SDS011;68943;49.472;17.970;2023-07-13T03:00:53;6.53;;;4.63;;
79478;SDS011;68943;49.472;17.970;2023-07-13T03:03:19;7.03;;;5.72;;
79478;SDS011;68943;49.472;17.970;2023-07-13T03:05:45;7.15;;;5.38;;
79478;SDS011;68943;49.472;17.970;2023-07-13T03:08:15;7.18;;;5.22;;
79478;SDS011;68943;49.472;17.970;2023-07-13T03:10:43;6.85;;;4.60;;
79478;SDS011;68943;49.472;17.970;2023-07-13T03:13:09;8.18;;;5.13;;
79478;SDS011;68943;49.472;17.970;2023-07-13T03:15:35;6.50;;;5.07;;
79478;SDS011;68943;49.472;17.970;2023-07-13T03:18:01;7.75;;;6.22;;
79478;SDS011;68943;49.472;17.970;2023-07-13T03:20:27;7.47;;;5.03;;
79478;SDS011;68943;49.472;17.970;2023-07-13T03:22:54;6.82;;;4.32;;
79478;SDS011;68943;49.472;17.970;2023-07-13T03:25:20;6.47;;;5.10;;
79478;SDS011;68943;49.472;17.970;2023-07-13T03:27:46;9.68;;;5.80;;
79478;SDS011;68943;49.472;17.970;2023-07-13T03:30:12;6.68;;;4.57;;
79478;SDS011;68943;49.472;17.970;2023-07-13T03:32:38;8.18;;;5.45;;
79478;SDS011;68943;49.472;17.970;2023-07-13T03:35:04;8.15;;;6.47;;
79478;SDS011;68943;49.472;17.970;2023-07-13T03:37:30;8.88;;;5.32;;
79478;SDS011;68943;49.472;17.970;2023-07-13T03:39:56;8.52;;;5.35;;
79478;SDS011;68943;49.472;17.970;2023-07-13T03:42:23;10.82;;;6.35;;
79478;SDS011;68943;49.472;17.970;2023-07-13T03:44:49;10.63;;;5.90;;
79478;SDS011;68943;49.472;17.970;2023-07-13T03:47:17;10.00;;;6.93;;
79478;SDS011;68943;49.472;17.970;2023-07-13T03:49:44;9.30;;;6.30;;
79478;SDS011;68943;49.472;17.970;2023-07-13T03:52:11;7.40;;;5.22;;
79478;SDS011;68943;49.472;17.970;2023-07-13T03:54:37;7.95;;;5.82;;
79478;SDS011;68943;49.472;17.970;2023-07-13T03:57:03;6.70;;;5.88;;
79478;SDS011;68943;49.472;17.970;2023-07-13T03:59:29;6.63;;;4.68;;
79478;SDS011;68943;49.472;17.970;2023-07-13T04:01:55;7.80;;;5.70;;
79478;SDS011;68943;49.472;17.970;2023-07-13T04:04:21;8.10;;;5.30;;
79478;SDS011;68943;49.472;17.970;2023-07-13T04:06:47;7.85;;;5.82;;
79478;SDS011;68943;49.472;17.970;2023-07-13T04:09:13;7.68;;;5.88;;
79478;SDS011;68943;49.472;17.970;2023-07-13T04:11:39;7.03;;;5.10;;
79478;SDS011;68943;49.472;17.970;2023-07-13T04:14:05;8.65;;;6.55;;
79478;SDS011;68943;49.472;17.970;2023-07-13T04:16:33;7.68;;;6.38;;
79478;SDS011;68943;49.472;17.970;2023-07-13T04:18:59;9.50;;;5.55;;
79478;SDS011;68943;49.472;17.970;2023-07-13T04:21:28;8.45;;;5.75;;
79478;SDS011;68943;49.472;17.970;2023-07-13T04:23:56;8.80;;;5.53;;
79478;SDS011;68943;49.472;17.970;2023-07-13T04:26:23;8.02;;;5.05;;
79478;SDS011;68943;49.472;17.970;2023-07-13T04:28:49;8.25;;;5.88;;
79478;SDS011;68943;49.472;17.970;2023-07-13T04:31:16;7.32;;;5.28;;
79478;SDS011;68943;49.472;17.970;2023-07-13T04:33:42;6.10;;;5.07;;
79478;SDS011;68943;49.472;17.970;2023-07-13T04:36:08;8.32;;;5.78;;
79478;SDS011;68943;49.472;17.970;2023-07-13T04:38:35;12.40;;;6.47;;
79478;SDS011;68943;49.472;17.970;2023-07-13T04:41:02;12.82;;;5.80;;
79478;SDS011;68943;49.472;17.970;2023-07-13T04:43:29;8.23;;;6.20;;
79478;SDS011;68943;49.472;17.970;2023-07-13T04:45:55;8.00;;;5.63;;
79478;SDS011;68943;49.472;17.970;2023-07-13T04:48:22;7.90;;;5.32;;
79478;SDS011;68943;49.472;17.970;2023-07-13T04:50:53;7.75;;;5.63;;
79478;SDS011;68943;49.472;17.970;2023-07-13T04:53:20;6.85;;;5.18;;
79478;SDS011;68943;49.472;17.970;2023-07-13T04:55:46;9.25;;;6.35;;
79478;SDS011;68943;49.472;17.970;2023-07-13T04:58:12;9.23;;;5.63;;
79478;SDS011;68943;49.472;17.970;2023-07-13T05:00:38;9.55;;;5.30;;
79478;SDS011;68943;49.472;17.970;2023-07-13T05:03:04;9.20;;;5.75;;
79478;SDS011;68943;49.472;17.970;2023-07-13T05:05:30;9.60;;;5.25;;
79478;SDS011;68943;49.472;17.970;2023-07-13T05:07:57;9.13;;;6.03;;
79478;SDS011;68943;49.472;17.970;2023-07-13T05:10:23;7.82;;;6.18;;
79478;SDS011;68943;49.472;17.970;2023-07-13T05:12:49;7.20;;;4.95;;
79478;SDS011;68943;49.472;17.970;2023-07-13T05:15:20;6.65;;;3.88;;
79478;SDS011;68943;49.472;17.970;2023-07-13T05:17:47;6.00;;;4.72;;
79478;SDS011;68943;49.472;17.970;2023-07-13T05:20:14;6.13;;;4.35;;
79478;SDS011;68943;49.472;17.970;2023-07-13T05:22:40;7.45;;;4.50;;
79478;SDS011;68943;49.472;17.970;2023-07-13T05:25:07;7.13;;;3.63;;
79478;SDS011;68943;49.472;17.970;2023-07-13T05:27:33;7.97;;;4.78;;
79478;SDS011;68943;49.472;17.970;2023-07-13T05:30:01;8.07;;;4.45;;
79478;SDS011;68943;49.472;17.970;2023-07-13T05:32:27;7.50;;;4.30;;
79478;SDS011;68943;49.472;17.970;2023-07-13T05:34:53;5.80;;;3.92;;
79478;SDS011;68943;49.472;17.970;2023-07-13T05:37:19;10.85;;;3.75;;
79478;SDS011;68943;49.472;17.970;2023-07-13T05:39:45;9.32;;;3.80;;
79478;SDS011;68943;49.472;17.970;2023-07-13T05:42:11;6.85;;;4.38;;
79478;SDS011;68943;49.472;17.970;2023-07-13T05:44:46;5.43;;;3.65;;
79478;SDS011;68943;49.472;17.970;2023-07-13T05:47:22;6.50;;;4.15;;
79478;SDS011;68943;49.472;17.970;2023-07-13T05:49:48;6.90;;;4.15;;
79478;SDS011;68943;49.472;17.970;2023-07-13T05:52:14;5.57;;;4.47;;
79478;SDS011;68943;49.472;17.970;2023-07-13T05:54:40;5.10;;;4.05;;
79478;SDS011;68943;49.472;17.970;2023-07-13T05:57:06;9.05;;;3.80;;
79478;SDS011;68943;49.472;17.970;2023-07-13T05:59:32;7.10;;;3.45;;
79478;SDS011;68943;49.472;17.970;2023-07-13T06:02:01;8.15;;;2.95;;
79478;SDS011;68943;49.472;17.970;2023-07-13T06:04:27;8.27;;;3.30;;
79478;SDS011;68943;49.472;17.970;2023-07-13T06:06:53;5.20;;;3.05;;
79478;SDS011;68943;49.472;17.970;2023-07-13T06:09:19;4.53;;;3.25;;
79478;SDS011;68943;49.472;17.970;2023-07-13T06:11:45;5.93;;;4.30;;
79478;SDS011;68943;49.472;17.970;2023-07-13T06:14:11;4.30;;;3.00;;
79478;SDS011;68943;49.472;17.970;2023-07-13T06:16:37;4.10;;;2.90;;
79478;SDS011;68943;49.472;17.970;2023-07-13T06:19:03;6.28;;;3.90;;
79478;SDS011;68943;49.472;17.970;2023-07-13T06:21:29;3.65;;;2.50;;
79478;SDS011;68943;49.472;17.970;2023-07-13T06:23:55;4.55;;;2.63;;
79478;SDS011;68943;49.472;17.970;2023-07-13T06:26:22;5.07;;;3.03;;
79478;SDS011;68943;49.472;17.970;2023-07-13T06:28:48;4.13;;;2.95;;
79478;SDS011;68943;49.472;17.970;2023-07-13T06:31:14;5.35;;;3.38;;
79478;SDS011;68943;49.472;17.970;2023-07-13T06:33:40;5.05;;;3.35;;
79478;SDS011;68943;49.472;17.970;2023-07-13T06:36:07;3.75;;;2.92;;
79478;SDS011;68943;49.472;17.970;2023-07-13T06:38:33;5.43;;;2.70;;
79478;SDS011;68943;49.472;17.970;2023-07-13T06:41:00;4.97;;;3.10;;
79478;SDS011;68943;49.472;17.970;2023-07-13T06:43:26;5.22;;;3.45;;
79478;SDS011;68943;49.472;17.970;2023-07-13T06:45:54;4.65;;;3.70;;
79478;SDS011;68943;49.472;17.970;2023-07-13T06:48:21;7.30;;;4.15;;
79478;SDS011;68943;49.472;17.970;2023-07-13T06:50:48;5.57;;;3.30;;
79478;SDS011;68943;49.472;17.970;2023-07-13T06:53:34;5.47;;;3.80;;
79478;SDS011;68943;49.472;17.970;2023-07-13T06:56:01;3.95;;;3.10;;
79478;SDS011;68943;49.472;17.970;2023-07-13T06:58:27;4.75;;;2.75;;
79478;SDS011;68943;49.472;17.970;2023-07-13T07:00:53;4.20;;;3.35;;
79478;SDS011;68943;49.472;17.970;2023-07-13T07:03:19;5.22;;;2.90;;
79478;SDS011;68943;49.472;17.970;2023-07-13T07:05:45;3.78;;;2.65;;
79478;SDS011;68943;49.472;17.970;2023-07-13T07:08:11;5.03;;;2.90;;
79478;SDS011;68943;49.472;17.970;2023-07-13T07:10:40;8.75;;;3.53;;
79478;SDS011;68943;49.472;17.970;2023-07-13T07:13:06;4.05;;;2.50;;
79478;SDS011;68943;49.472;17.970;2023-07-13T07:15:32;4.85;;;2.53;;
79478;SDS011;68943;49.472;17.970;2023-07-13T07:18:00;4.70;;;2.13;;
79478;SDS011;68943;49.472;17.970;2023-07-13T07:20:26;5.13;;;2.75;;
79478;SDS011;68943;49.472;17.970;2023-07-13T07:22:54;5.22;;;3.17;;
79478;SDS011;68943;49.472;17.970;2023-07-13T07:25:21;4.10;;;2.42;;
79478;SDS011;68943;49.472;17.970;2023-07-13T07:27:47;5.93;;;2.75;;
79478;SDS011;68943;49.472;17.970;2023-07-13T07:30:14;5.88;;;3.03;;
79478;SDS011;68943;49.472;17.970;2023-07-13T07:32:40;5.65;;;2.67;;
79478;SDS011;68943;49.472;17.970;2023-07-13T07:35:07;8.13;;;4.90;;
79478;SDS011;68943;49.472;17.970;2023-07-13T07:37:34;4.32;;;2.70;;
79478;SDS011;68943;49.472;17.970;2023-07-13T07:40:00;5.22;;;2.83;;
79478;SDS011;68943;49.472;17.970;2023-07-13T07:42:26;6.00;;;2.85;;
79478;SDS011;68943;49.472;17.970;2023-07-13T07:44:53;5.40;;;2.55;;
79478;SDS011;68943;49.472;17.970;2023-07-13T07:49:48;4.90;;;3.28;;
79478;SDS011;68943;49.472;17.970;2023-07-13T07:52:17;4.50;;;2.92;;
79478;SDS011;68943;49.472;17.970;2023-07-13T07:54:43;5.20;;;2.88;;
79478;SDS011;68943;49.472;17.970;2023-07-13T07:57:09;4.85;;;2.90;;
79478;SDS011;68943;49.472;17.970;2023-07-13T07:59:36;6.20;;;2.58;;
79478;SDS011;68943;49.472;17.970;2023-07-13T08:02:03;4.72;;;2.97;;
79478;SDS011;68943;49.472;17.970;2023-07-13T08:06:58;4.07;;;2.90;;
79478;SDS011;68943;49.472;17.970;2023-07-13T08:09:27;9.32;;;3.90;;
79478;SDS011;68943;49.472;17.970;2023-07-13T08:11:55;8.95;;;3.53;;
79478;SDS011;68943;49.472;17.970;2023-07-13T08:14:21;4.50;;;2.72;;
79478;SDS011;68943;49.472;17.970;2023-07-13T08:16:47;7.00;;;3.08;;
79478;SDS011;68943;49.472;17.970;2023-07-13T08:19:20;5.15;;;3.08;;
79478;SDS011;68943;49.472;17.970;2023-07-13T08:22:05;5.13;;;2.83;;
79478;SDS011;68943;49.472;17.970;2023-07-13T08:24:31;6.90;;;3.55;;
79478;SDS011;68943;49.472;17.970;2023-07-13T08:26:57;4.55;;;3.05;;
79478;SDS011;68943;49.472;17.970;2023-07-13T08:29:24;6.68;;;3.85;;
79478;SDS011;68943;49.472;17.970;2023-07-13T08:31:50;5.32;;;3.35;;
79478;SDS011;68943;49.472;17.970;2023-07-13T08:34:16;4.88;;;4.03;;
79478;SDS011;68943;49.472;17.970;2023-07-13T08:36:42;4.93;;;2.80;;
79478;SDS011;68943;49.472;17.970;2023-07-13T08:39:08;5.40;;;2.97;;
79478;SDS011;68943;49.472;17.970;2023-07-13T08:41:34;6.93;;;4.10;;
79478;SDS011;68943;49.472;17.970;2023-07-13T08:44:01;4.93;;;3.40;;
79478;SDS011;68943;49.472;17.970;2023-07-13T08:46:32;5.75;;;3.28;;
79478;SDS011;68943;49.472;17.970;2023-07-13T08:49:00;5.53;;;3.25;;
79478;SDS011;68943;49.472;17.970;2023-07-13T08:54:04;5.93;;;3.33;;
79478;SDS011;68943;49.472;17.970;2023-07-13T08:56:31;5.43;;;4.32;;
79478;SDS011;68943;49.472;17.970;2023-07-13T08:59:00;6.05;;;3.78;;
79478;SDS011;68943;49.472;17.970;2023-07-13T09:09:41;7.40;;;4.57;;
79478;SDS011;68943;49.472;17.970;2023-07-13T09:14:55;6.18;;;3.55;;
79478;SDS011;68943;49.472;17.970;2023-07-13T09:17:25;6.90;;;3.95;;
79478;SDS011;68943;49.472;17.970;2023-07-13T09:19:57;5.80;;;3.63;;
79478;SDS011;68943;49.472;17.970;2023-07-13T09:22:25;7.75;;;4.30;;
79478;SDS011;68943;49.472;17.970;2023-07-13T09:27:25;7.13;;;5.35;;
79478;SDS011;68943;49.472;17.970;2023-07-13T09:29:58;7.03;;;5.13;;
79478;SDS011;68943;49.472;17.970;2023-07-13T09:32:28;9.57;;;5.15;;
79478;SDS011;68943;49.472;17.970;2023-07-13T09:34:55;7.85;;;4.18;;
79478;SDS011;68943;49.472;17.970;2023-07-13T09:37:29;5.35;;;2.78;;
79478;SDS011;68943;49.472;17.970;2023-07-13T09:39:56;5.47;;;3.50;;
79478;SDS011;68943;49.472;17.970;2023-07-13T09:42:23;6.53;;;4.53;;
79478;SDS011;68943;49.472;17.970;2023-07-13T09:44:53;4.72;;;3.88;;
79478;SDS011;68943;49.472;17.970;2023-07-13T09:47:24;6.63;;;3.40;;
79478;SDS011;68943;49.472;17.970;2023-07-13T09:49:59;5.28;;;3.72;;
79478;SDS011;68943;49.472;17.970;2023-07-13T09:52:25;8.52;;;5.22;;
79478;SDS011;68943;49.472;17.970;2023-07-13T09:54:55;6.10;;;4.78;;
79478;SDS011;68943;49.472;17.970;2023-07-13T09:57:24;3.42;;;2.22;;
79478;SDS011;68943;49.472;17.970;2023-07-13T09:59:51;5.20;;;3.63;;
79478;SDS011;68943;49.472;17.970;2023-07-13T10:02:28;5.63;;;3.47;;
79478;SDS011;68943;49.472;17.970;2023-07-13T10:04:59;4.25;;;3.85;;
79478;SDS011;68943;49.472;17.970;2023-07-13T10:07:26;3.80;;;3.42;;
79478;SDS011;68943;49.472;17.970;2023-07-13T10:09:54;3.30;;;2.78;;
79478;SDS011;68943;49.472;17.970;2023-07-13T10:12:21;4.50;;;2.58;;
79478;SDS011;68943;49.472;17.970;2023-07-13T10:14:50;5.18;;;2.95;;
79478;SDS011;68943;49.472;17.970;2023-07-13T10:17:16;4.68;;;2.47;;
79478;SDS011;68943;49.472;17.970;2023-07-13T10:19:44;3.80;;;2.83;;
79478;SDS011;68943;49.472;17.970;2023-07-13T10:22:17;3.03;;;2.60;;
79478;SDS011;68943;49.472;17.970;2023-07-13T10:24:48;3.22;;;2.45;;
79478;SDS011;68943;49.472;17.970;2023-07-13T10:27:17;2.85;;;2.55;;
79478;SDS011;68943;49.472;17.970;2023-07-13T10:29:55;2.92;;;2.60;;
79478;SDS011;68943;49.472;17.970;2023-07-13T10:32:24;3.38;;;2.38;;
79478;SDS011;68943;49.472;17.970;2023-07-13T10:34:53;4.55;;;2.08;;
79478;SDS011;68943;49.472;17.970;2023-07-13T10:37:25;3.53;;;1.98;;
79478;SDS011;68943;49.472;17.970;2023-07-13T10:39:53;3.63;;;2.30;;
79478;SDS011;68943;49.472;17.970;2023-07-13T10:42:28;2.30;;;1.75;;
79478;SDS011;68943;49.472;17.970;2023-07-13T10:44:54;4.40;;;1.83;;
79478;SDS011;68943;49.472;17.970;2023-07-13T10:47:20;4.03;;;1.85;;
79478;SDS011;68943;49.472;17.970;2023-07-13T10:49:47;2.85;;;1.92;;
79478;SDS011;68943;49.472;17.970;2023-07-13T10:55:02;3.08;;;1.90;;
79478;SDS011;68943;49.472;17.970;2023-07-13T10:57:29;3.67;;;1.10;;
79478;SDS011;68943;49.472;17.970;2023-07-13T11:02:28;1.70;;;1.35;;
79478;SDS011;68943;49.472;17.970;2023-07-13T11:04:55;2.55;;;2.20;;
79478;SDS011;68943;49.472;17.970;2023-07-13T11:09:49;2.08;;;1.52;;
79478;SDS011;68943;49.472;17.970;2023-07-13T11:17:24;3.15;;;2.65;;
79478;SDS011;68943;49.472;17.970;2023-07-13T11:19:51;1.30;;;0.90;;
79478;SDS011;68943;49.472;17.970;2023-07-13T11:22:22;2.83;;;1.83;;
79478;SDS011;68943;49.472;17.970;2023-07-13T11:24:59;1.67;;;1.58;;
79478;SDS011;68943;49.472;17.970;2023-07-13T11:27:36;1.50;;;0.98;;
79478;SDS011;68943;49.472;17.970;2023-07-13T11:30:09;1.90;;;0.60;;
79478;SDS011;68943;49.472;17.970;2023-07-13T11:32:35;2.08;;;0.98;;
79478;SDS011;68943;49.472;17.970;2023-07-13T11:35:01;1.30;;;0.55;;
79478;SDS011;68943;49.472;17.970;2023-07-13T11:37:27;1.77;;;1.50;;
79478;SDS011;68943;49.472;17.970;2023-07-13T11:39:55;1.75;;;1.60;;
79478;SDS011;68943;49.472;17.970;2023-07-13T11:42:22;1.90;;;0.90;;
79478;SDS011;68943;49.472;17.970;2023-07-13T11:44:48;2.10;;;1.13;;
79478;SDS011;68943;49.472;17.970;2023-07-13T11:47:18;2.97;;;2.33;;
79478;SDS011;68943;49.472;17.970;2023-07-13T11:49:49;1.30;;;0.60;;
79478;SDS011;68943;49.472;17.970;2023-07-13T11:52:18;3.20;;;1.70;;
79478;SDS011;68943;49.472;17.970;2023-07-13T11:54:56;3.17;;;1.33;;
79478;SDS011;68943;49.472;17.970;2023-07-13T11:57:33;2.63;;;1.80;;
79478;SDS011;68943;49.472;17.970;2023-07-13T12:00:04;1.88;;;1.23;;
79478;SDS011;68943;49.472;17.970;2023-07-13T12:02:36;2.92;;;1.42;;
79478;SDS011;68943;49.472;17.970;2023-07-13T12:05:03;2.47;;;1.80;;
79478;SDS011;68943;49.472;17.970;2023-07-13T12:07:31;3.25;;;1.70;;
79478;SDS011;68943;49.472;17.970;2023-07-13T12:12:29;2.25;;;1.25;;
79478;SDS011;68943;49.472;17.970;2023-07-13T12:14:57;2.08;;;1.67;;
79478;SDS011;68943;49.472;17.970;2023-07-13T12:17:24;1.98;;;1.38;;
79478;SDS011;68943;49.472;17.970;2023-07-13T12:19:52;1.90;;;1.20;;
79478;SDS011;68943;49.472;17.970;2023-07-13T12:22:19;4.05;;;2.22;;
79478;SDS011;68943;49.472;17.970;2023-07-13T12:24:46;2.60;;;1.58;;
79478;SDS011;68943;49.472;17.970;2023-07-13T12:27:24;2.95;;;1.77;;
79478;SDS011;68943;49.472;17.970;2023-07-13T12:30:00;2.10;;;1.90;;
79478;SDS011;68943;49.472;17.970;2023-07-13T12:32:27;2.63;;;1.77;;
79478;SDS011;68943;49.472;17.970;2023-07-13T12:34:56;2.22;;;1.70;;
79478;SDS011;68943;49.472;17.970;2023-07-13T12:37:23;4.22;;;1.73;;
79478;SDS011;68943;49.472;17.970;2023-07-13T12:39:51;2.38;;;1.67;;
79478;SDS011;68943;49.472;17.970;2023-07-13T12:42:28;3.05;;;1.98;;
79478;SDS011;68943;49.472;17.970;2023-07-13T12:45:01;1.92;;;1.42;;
79478;SDS011;68943;49.472;17.970;2023-07-13T12:47:29;3.05;;;2.28;;
79478;SDS011;68943;49.472;17.970;2023-07-13T12:49:58;2.03;;;1.20;;
79478;SDS011;68943;49.472;17.970;2023-07-13T12:52:31;2.38;;;1.90;;
79478;SDS011;68943;49.472;17.970;2023-07-13T12:55:19;2.47;;;1.75;;
79478;SDS011;68943;49.472;17.970;2023-07-13T13:02:54;2.53;;;1.60;;
79478;SDS011;68943;49.472;17.970;2023-07-13T13:05:21;2.65;;;1.58;;
79478;SDS011;68943;49.472;17.970;2023-07-13T13:07:50;1.35;;;0.98;;
79478;SDS011;68943;49.472;17.970;2023-07-13T13:10:16;2.08;;;1.50;;
79478;SDS011;68943;49.472;17.970;2023-07-13T13:12:42;2.13;;;1.65;;
79478;SDS011;68943;49.472;17.970;2023-07-13T13:15:09;2.55;;;1.00;;
79478;SDS011;68943;49.472;17.970;2023-07-13T13:17:36;1.67;;;1.20;;
79478;SDS011;68943;49.472;17.970;2023-07-13T13:20:16;2.38;;;1.35;;
79478;SDS011;68943;49.472;17.970;2023-07-13T13:22:42;1.90;;;1.10;;
79478;SDS011;68943;49.472;17.970;2023-07-13T13:25:12;2.05;;;1.17;;
79478;SDS011;68943;49.472;17.970;2023-07-13T13:27:42;2.20;;;0.93;;
79478;SDS011;68943;49.472;17.970;2023-07-13T13:30:12;1.40;;;1.20;;
79478;SDS011;68943;49.472;17.970;2023-07-13T13:32:41;0.70;;;0.40;;
79478;SDS011;68943;49.472;17.970;2023-07-13T13:37:52;1.58;;;1.08;;
79478;SDS011;68943;49.472;17.970;2023-07-13T13:40:19;2.72;;;1.35;;
79478;SDS011;68943;49.472;17.970;2023-07-13T13:42:46;2.00;;;1.60;;
79478;SDS011;68943;49.472;17.970;2023-07-13T13:45:13;2.10;;;1.25;;
79478;SDS011;68943;49.472;17.970;2023-07-13T13:47:39;1.88;;;1.13;;
79478;SDS011;68943;49.472;17.970;2023-07-13T13:50:12;2.30;;;2.10;;
79478;SDS011;68943;49.472;17.970;2023-07-13T13:52:41;2.25;;;1.27;;
79478;SDS011;68943;49.472;17.970;2023-07-13T13:55:17;2.35;;;1.48;;
79478;SDS011;68943;49.472;17.970;2023-07-13T13:57:47;2.20;;;1.92;;
79478;SDS011;68943;49.472;17.970;2023-07-13T14:00:15;2.47;;;1.40;;
79478;SDS011;68943;49.472;17.970;2023-07-13T14:02:47;2.08;;;1.73;;
79478;SDS011;68943;49.472;17.970;2023-07-13T14:05:18;3.60;;;2.28;;
79478;SDS011;68943;49.472;17.970;2023-07-13T14:07:46;2.22;;;1.45;;
79478;SDS011;68943;49.472;17.970;2023-07-13T14:10:13;2.40;;;1.50;;
79478;SDS011;68943;49.472;17.970;2023-07-13T14:12:40;2.75;;;2.13;;
79478;SDS011;68943;49.472;17.970;2023-07-13T14:15:08;3.90;;;2.08;;
79478;SDS011;68943;49.472;17.970;2023-07-13T14:17:39;4.95;;;2.08;;
79478;SDS011;68943;49.472;17.970;2023-07-13T14:20:10;2.25;;;1.23;;
79478;SDS011;68943;49.472;17.970;2023-07-13T14:22:36;3.67;;;2.28;;
79478;SDS011;68943;49.472;17.970;2023-07-13T14:25:03;2.75;;;2.53;;
79478;SDS011;68943;49.472;17.970;2023-07-13T14:27:29;3.78;;;3.28;;
79478;SDS011;68943;49.472;17.970;2023-07-13T14:29:56;3.22;;;2.92;;
79478;SDS011;68943;49.472;17.970;2023-07-13T14:32:22;3.67;;;2.95;;
79478;SDS011;68943;49.472;17.970;2023-07-13T14:34:49;3.58;;;3.05;;
79478;SDS011;68943;49.472;17.970;2023-07-13T14:37:23;3.92;;;2.63;;
79478;SDS011;68943;49.472;17.970;2023-07-13T14:39:51;3.75;;;3.45;;
79478;SDS011;68943;49.472;17.970;2023-07-13T14:42:18;3.45;;;2.80;;
79478;SDS011;68943;49.472;17.970;2023-07-13T14:44:45;3.60;;;3.08;;
79478;SDS011;68943;49.472;17.970;2023-07-13T14:47:13;4.30;;;4.00;;
79478;SDS011;68943;49.472;17.970;2023-07-13T14:49:40;3.00;;;2.70;;
79478;SDS011;68943;49.472;17.970;2023-07-13T14:52:17;4.00;;;3.60;;
79478;SDS011;68943;49.472;17.970;2023-07-13T14:54:43;3.05;;;2.40;;
79478;SDS011;68943;49.472;17.970;2023-07-13T14:57:14;3.40;;;2.78;;
79478;SDS011;68943;49.472;17.970;2023-07-13T14:59:47;4.20;;;3.28;;
79478;SDS011;68943;49.472;17.970;2023-07-13T15:02:19;3.90;;;3.13;;
79478;SDS011;68943;49.472;17.970;2023-07-13T15:04:49;4.07;;;3.65;;
79478;SDS011;68943;49.472;17.970;2023-07-13T15:07:15;3.58;;;3.28;;
79478;SDS011;68943;49.472;17.970;2023-07-13T15:09:44;3.75;;;3.38;;
79478;SDS011;68943;49.472;17.970;2023-07-13T15:12:10;4.95;;;4.55;;
79478;SDS011;68943;49.472;17.970;2023-07-13T15:14:36;5.38;;;4.18;;
79478;SDS011;68943;49.472;17.970;2023-07-13T15:17:02;4.22;;;3.83;;
79478;SDS011;68943;49.472;17.970;2023-07-13T15:19:28;4.75;;;3.80;;
79478;SDS011;68943;49.472;17.970;2023-07-13T15:21:55;5.05;;;4.05;;
79478;SDS011;68943;49.472;17.970;2023-07-13T15:24:22;3.95;;;3.55;;
79478;SDS011;68943;49.472;17.970;2023-07-13T15:26:49;4.45;;;4.05;;